createdAt,value
2018-03-16T10:58:36.833Z,13.92
2018-03-16T10:59:36.000Z,13.86
2018-03-16T11:00:36.230Z,13.79
2018-03-16T11:01:36.218Z,13.79
2018-03-16T11:02:36.252Z,13.79
2018-03-16T11:03:36.206Z,13.72
2018-03-16T11:04:36.207Z,13.53
2018-03-16T11:05:35.938Z,13.47
2018-03-16T11:06:35.964Z,13.35
2018-03-16T11:07:36.192Z,13.19
2018-03-16T11:08:36.743Z,13.11
2018-03-16T11:09:36.195Z,13.03
2018-03-16T11:10:35.961Z,13.01
2018-03-16T11:11:35.935Z,13.05
2018-03-16T11:12:36.178Z,13.16
2018-03-16T11:13:35.916Z,13.08
2018-03-16T11:14:35.667Z,13.13
2018-03-16T11:15:36.180Z,13.22
2018-03-16T11:16:36.174Z,13.18
2018-03-16T11:17:35.949Z,13.28
2018-03-16T11:18:36.167Z,13.28
2018-03-16T11:19:36.173Z,13.49
2018-03-16T11:20:36.172Z,13.5
2018-03-16T11:21:35.908Z,13.54
2018-03-16T11:22:36.176Z,13.53
2018-03-16T11:23:36.326Z,13.72
2018-03-16T11:24:36.169Z,13.81
2018-03-16T11:25:36.164Z,13.81
2018-03-16T11:26:35.667Z,13.93
2018-03-16T11:27:36.153Z,13.96
2018-03-16T11:28:35.904Z,14.08
2018-03-16T11:29:35.905Z,14.1
2018-03-16T11:30:36.157Z,14.14
2018-03-16T11:31:36.156Z,14.12
2018-03-16T11:32:36.174Z,14.22
2018-03-16T11:33:36.156Z,14.15
2018-03-16T11:34:36.161Z,14.17
2018-03-16T11:35:36.160Z,14.26
2018-03-16T11:36:35.889Z,14.18
2018-03-16T11:37:35.970Z,14.25
2018-03-16T11:38:36.182Z,14.23
2018-03-16T11:39:36.141Z,14.32
2018-03-16T11:40:35.889Z,14.32
2018-03-16T11:41:36.157Z,14.25
2018-03-16T11:42:36.157Z,14.35
2018-03-16T11:43:35.890Z,14.35
2018-03-16T11:44:36.146Z,14.36
2018-03-16T11:45:35.895Z,14.4
2018-03-16T11:46:35.899Z,14.44
2018-03-16T11:47:36.148Z,14.4
2018-03-16T11:48:35.918Z,14.41
2018-03-16T11:49:36.146Z,14.41
2018-03-16T11:50:35.908Z,14.45
2018-03-16T11:51:35.889Z,14.43
2018-03-16T11:52:36.136Z,14.48
2018-03-16T11:53:36.151Z,14.45
2018-03-16T11:54:36.173Z,14.37
2018-03-16T11:55:36.144Z,14.55
2018-03-16T11:56:36.135Z,14.58
2018-03-16T11:57:36.149Z,14.55
2018-03-16T11:58:36.130Z,14.59
2018-03-16T11:59:36.877Z,14.65
2018-03-16T12:00:36.128Z,14.7
2018-03-16T12:01:36.145Z,14.85
2018-03-16T12:02:36.135Z,14.97
2018-03-16T12:03:36.148Z,15.06
2018-03-16T12:04:36.144Z,15.04
2018-03-16T12:05:35.872Z,14.96
2018-03-16T12:06:36.135Z,15
2018-03-16T12:07:35.905Z,14.96
2018-03-16T12:08:36.133Z,14.96
2018-03-16T12:09:35.873Z,14.89
2018-03-16T12:10:35.875Z,14.88
2018-03-16T12:11:35.870Z,14.66
2018-03-16T12:12:36.145Z,14.37
2018-03-16T12:13:35.876Z,14.15
2018-03-16T12:14:36.200Z,13.99
2018-03-16T12:15:35.615Z,13.86
2018-03-16T12:16:35.864Z,13.81
2018-03-16T12:17:36.120Z,13.83
2018-03-16T12:18:35.861Z,13.9
2018-03-16T12:19:35.865Z,13.99
2018-03-16T12:20:35.864Z,14
2018-03-16T12:21:36.173Z,14.05
2018-03-16T12:22:36.148Z,13.93
2018-03-16T12:23:36.138Z,13.93
2018-03-16T12:24:36.129Z,14.1
2018-03-16T12:25:35.866Z,14.11
2018-03-16T12:26:36.120Z,14.05
2018-03-16T12:27:35.866Z,14.08
2018-03-16T12:28:55.281Z,13.96
2018-03-16T12:29:36.585Z,13.97
2018-03-16T12:30:36.143Z,14
2018-03-16T12:31:36.152Z,14.03
2018-03-16T12:32:36.144Z,14.07
2018-03-16T12:33:36.137Z,14.1
2018-03-16T12:34:36.161Z,14.11
2018-03-16T12:35:36.136Z,14.18
2018-03-16T12:36:35.871Z,14.18
2018-03-16T12:37:36.138Z,14.23
2018-03-16T12:38:36.001Z,14.35
2018-03-16T12:39:35.597Z,14.32
2018-03-16T12:40:36.140Z,14.37
2018-03-16T12:41:36.141Z,14.29
2018-03-16T12:42:35.857Z,14.41
2018-03-16T12:43:35.874Z,14.43
2018-03-16T12:44:36.125Z,14.53
2018-03-16T12:45:35.595Z,14.54
2018-03-16T12:46:36.140Z,14.51
2018-03-16T12:47:35.845Z,14.44
2018-03-16T12:48:35.857Z,14.36
2018-03-16T12:49:36.113Z,14.26
2018-03-16T12:50:36.126Z,14.26
2018-03-16T12:51:44.840Z,14.33
2018-03-16T12:52:36.129Z,14.41
2018-03-16T12:53:36.265Z,14.5
2018-03-16T12:54:36.131Z,14.59
2018-03-16T12:55:35.866Z,14.54
2018-03-16T12:56:36.126Z,14.65
2018-03-16T12:57:35.882Z,14.73
2018-03-16T12:58:36.134Z,14.66
2018-03-16T12:59:36.126Z,14.63
2018-03-16T13:00:36.130Z,14.54
2018-03-16T13:01:35.856Z,14.43
2018-03-16T13:02:36.133Z,14.62
2018-03-16T13:03:36.130Z,14.66
2018-03-16T13:04:36.110Z,14.85
2018-03-16T13:05:36.112Z,14.91
2018-03-16T13:06:35.864Z,14.89
2018-03-16T13:07:36.131Z,15.06
2018-03-16T13:08:35.861Z,15.02
2018-03-16T13:09:36.136Z,15.06
2018-03-16T13:10:36.149Z,15.02
2018-03-16T13:11:35.604Z,14.96
2018-03-16T13:12:36.116Z,14.97
2018-03-16T13:13:36.137Z,14.94
2018-03-16T13:14:36.112Z,14.94
2018-03-16T13:15:36.124Z,14.96
2018-03-16T13:16:36.134Z,14.97
2018-03-16T13:17:36.130Z,14.88
2018-03-16T13:18:36.114Z,14.96
2018-03-16T13:19:35.876Z,15
2018-03-16T13:20:36.145Z,14.91
2018-03-16T13:21:35.874Z,14.97
2018-03-16T13:22:35.852Z,14.91
2018-03-16T13:23:35.851Z,14.85
2018-03-16T13:24:35.895Z,14.78
2018-03-16T13:25:36.143Z,14.63
2018-03-16T13:26:35.590Z,14.54
2018-03-16T13:27:35.856Z,14.58
2018-03-16T13:28:36.165Z,14.55
2018-03-16T13:29:36.116Z,14.55
2018-03-16T13:30:36.119Z,14.62
2018-03-16T13:31:35.859Z,14.68
2018-03-16T13:32:36.122Z,14.63
2018-03-16T13:33:36.122Z,14.92
2018-03-16T13:34:36.124Z,14.97
2018-03-16T13:35:36.110Z,15.06
2018-03-16T13:36:36.139Z,15.28
2018-03-16T13:37:35.864Z,15.28
2018-03-16T13:38:36.124Z,15.29
2018-03-16T13:39:36.110Z,15.29
2018-03-16T13:40:36.132Z,15.11
2018-03-16T13:41:35.866Z,15.24
2018-03-16T13:42:35.862Z,15.18
2018-03-16T13:43:36.127Z,15.04
2018-03-16T13:44:35.855Z,14.96
2018-03-16T13:45:35.855Z,15.03
2018-03-16T13:46:35.850Z,15.11
2018-03-16T13:47:35.853Z,15.18
2018-03-16T13:48:35.850Z,15.1
2018-03-16T13:49:35.853Z,15.22
2018-03-16T13:50:35.854Z,15.21
2018-03-16T13:51:35.934Z,15.24
2018-03-16T13:52:36.130Z,15.18
2018-03-16T13:53:35.860Z,15.19
2018-03-16T13:54:35.588Z,15.29
2018-03-16T13:55:35.856Z,15.11
2018-03-16T13:56:35.856Z,15.22
2018-03-16T13:57:36.315Z,15.03
2018-03-16T13:58:35.759Z,15.06
2018-03-16T13:59:35.944Z,14.96
2018-03-16T14:00:43.833Z,14.89
2018-03-16T14:01:36.084Z,14.96
2018-03-16T14:02:35.860Z,15.03
2018-03-16T14:03:35.845Z,15.21
2018-03-16T14:04:35.859Z,15.31
2018-03-16T14:05:36.550Z,15.4
2018-03-16T14:06:35.823Z,15.47
2018-03-16T14:07:36.330Z,15.47
2018-03-16T14:08:36.534Z,15.47
2018-03-16T14:09:36.540Z,15.43
2018-03-16T14:10:36.119Z,15.46
2018-03-16T14:11:36.055Z,15.46
2018-03-16T14:12:36.160Z,15.36
2018-03-16T14:13:35.940Z,15.22
2018-03-16T14:14:36.140Z,15.15
2018-03-16T14:15:36.129Z,15.11
2018-03-16T14:16:36.388Z,15.06
2018-03-16T14:17:36.136Z,14.97
2018-03-16T14:18:36.125Z,14.99
2018-03-16T14:19:35.851Z,14.92
2018-03-16T14:20:36.136Z,14.92
2018-03-16T14:21:36.140Z,14.92
2018-03-16T14:22:35.870Z,14.86
2018-03-16T14:23:35.868Z,14.82
2018-03-16T14:24:36.131Z,14.73
2018-03-16T14:25:35.854Z,14.65
2018-03-16T14:26:36.135Z,14.65
2018-03-16T14:27:36.131Z,14.68
2018-03-16T14:28:36.757Z,14.79
2018-03-16T14:29:35.906Z,14.81
2018-03-16T14:30:36.144Z,14.85
2018-03-16T14:31:37.181Z,14.68
2018-03-16T14:32:35.935Z,14.68
2018-03-16T14:33:36.142Z,14.69
2018-03-16T14:34:35.849Z,14.82
2018-03-16T14:35:35.852Z,14.92
2018-03-16T14:36:36.130Z,14.91
2018-03-16T14:37:35.852Z,14.99
2018-03-16T14:38:36.130Z,15.02
2018-03-16T14:39:35.937Z,15.18
2018-03-16T14:40:36.140Z,15.04
2018-03-16T14:41:35.854Z,15.06
2018-03-16T14:42:36.253Z,14.96
2018-03-16T14:43:36.134Z,14.88
2018-03-16T14:44:35.853Z,14.85
2018-03-16T14:45:35.883Z,14.78
2018-03-16T14:46:36.113Z,14.81
2018-03-16T14:47:35.857Z,14.78
2018-03-16T14:48:36.125Z,14.62
2018-03-16T14:49:35.604Z,14.62
2018-03-16T14:50:36.112Z,14.6
2018-03-16T14:51:36.144Z,14.59
2018-03-16T14:52:35.867Z,14.41
2018-03-16T14:53:36.138Z,14.41
2018-03-16T14:54:35.914Z,14.22
2018-03-16T14:55:35.906Z,14.23
2018-03-16T14:56:36.120Z,14.26
2018-03-16T14:57:36.112Z,14.23
2018-03-16T14:58:36.118Z,14.23
2018-03-16T14:59:35.849Z,14.29
2018-03-16T15:00:35.843Z,14.26
2018-03-16T15:01:38.157Z,14.22
2018-03-16T15:02:35.852Z,14.26
2018-03-16T15:03:36.133Z,14.3
2018-03-16T15:04:35.848Z,14.17
2018-03-16T15:05:36.095Z,14.17
2018-03-16T15:06:35.866Z,14.28
2018-03-16T15:07:36.094Z,14.18
2018-03-16T15:08:35.833Z,14.23
2018-03-16T15:09:36.102Z,14.17
2018-03-16T15:10:36.099Z,14.17
2018-03-16T15:11:36.100Z,14.2
2018-03-16T15:12:36.098Z,14.2
2018-03-16T15:13:36.104Z,14.15
2018-03-16T15:14:35.844Z,14.25
2018-03-16T15:15:36.094Z,14.33
2018-03-16T15:16:35.560Z,14.32
2018-03-16T15:17:36.104Z,14.35
2018-03-16T15:18:36.110Z,14.29
2018-03-16T15:19:36.084Z,14.35
2018-03-16T15:20:36.097Z,14.2
2018-03-16T15:21:35.861Z,14.22
2018-03-16T15:22:35.826Z,14.15
2018-03-16T15:23:36.122Z,14.07
2018-03-16T15:24:35.773Z,14.11
2018-03-16T15:25:35.539Z,14.15
2018-03-16T15:26:36.062Z,14.12
2018-03-16T15:27:36.054Z,14.07
2018-03-16T15:28:35.504Z,13.92
2018-03-16T15:29:36.031Z,13.99
2018-03-16T15:30:35.765Z,13.92
2018-03-16T15:31:36.034Z,13.9
2018-03-16T15:32:36.026Z,13.79
2018-03-16T15:33:36.069Z,13.78
2018-03-16T15:34:36.031Z,13.92
2018-03-16T15:35:36.032Z,13.9
2018-03-16T15:36:35.758Z,13.78
2018-03-16T15:37:36.029Z,13.89
2018-03-16T15:38:36.052Z,13.79
2018-03-16T15:39:36.011Z,13.81
2018-03-16T15:40:36.022Z,13.89
2018-03-16T15:41:35.750Z,13.99
2018-03-16T15:42:35.749Z,14.05
2018-03-16T15:43:35.772Z,14.11
2018-03-16T15:44:36.016Z,14.18
2018-03-16T15:45:35.748Z,14.26
2018-03-16T15:46:35.755Z,14.37
2018-03-16T15:47:36.010Z,14.37
2018-03-16T15:48:35.731Z,14.43
2018-03-16T15:49:35.740Z,14.53
2018-03-16T15:50:35.737Z,14.59
2018-03-16T15:51:36.013Z,14.55
2018-03-16T15:52:35.758Z,14.54
2018-03-16T15:53:36.015Z,14.62
2018-03-16T15:54:36.005Z,14.6
2018-03-16T15:55:35.736Z,14.62
2018-03-16T15:56:35.725Z,14.6
2018-03-16T15:57:35.482Z,14.6
2018-03-16T15:58:35.736Z,14.53
2018-03-16T15:59:35.986Z,14.62
2018-03-16T16:00:35.719Z,14.63
2018-03-16T16:01:35.739Z,14.53
2018-03-16T16:02:35.506Z,14.6
2018-03-16T16:03:35.728Z,14.53
2018-03-16T16:04:36.043Z,14.53
2018-03-16T16:05:35.993Z,14.43
2018-03-16T16:06:35.717Z,14.41
2018-03-16T16:07:35.996Z,14.41
2018-03-16T16:08:36.141Z,14.37
2018-03-16T16:09:35.735Z,14.2
2018-03-16T16:10:35.977Z,14.2
2018-03-16T16:11:35.961Z,14.1
2018-03-16T16:12:35.967Z,14.04
2018-03-16T16:13:35.989Z,13.99
2018-03-16T16:14:35.719Z,13.95
2018-03-16T16:15:35.990Z,13.83
2018-03-16T16:16:35.717Z,13.87
2018-03-16T16:17:36.027Z,13.75
2018-03-16T16:18:35.707Z,13.74
2018-03-16T16:19:35.707Z,13.67
2018-03-16T16:20:35.977Z,13.57
2018-03-16T16:21:35.961Z,13.54
2018-03-16T16:22:35.982Z,13.53
2018-03-16T16:23:35.691Z,13.44
2018-03-16T16:24:35.948Z,13.47
2018-03-16T16:25:35.957Z,13.49
2018-03-16T16:26:35.981Z,13.46
2018-03-16T16:27:35.939Z,13.41
2018-03-16T16:28:35.682Z,13.41
2018-03-16T16:29:35.936Z,13.38
2018-03-16T16:30:36.092Z,13.42
2018-03-16T16:31:35.948Z,13.41
2018-03-16T16:32:38.323Z,13.37
2018-03-16T16:33:35.965Z,13.33
2018-03-16T16:34:36.045Z,13.28
2018-03-16T16:35:35.930Z,13.3
2018-03-16T16:36:35.939Z,13.23
2018-03-16T16:37:35.930Z,13.31
2018-03-16T16:38:35.729Z,13.22
2018-03-16T16:39:35.913Z,13.25
2018-03-16T16:40:35.735Z,13.28
2018-03-16T16:41:35.916Z,13.2
2018-03-16T16:42:35.651Z,13.16
2018-03-16T16:43:35.450Z,13.22
2018-03-16T16:44:35.695Z,13.19
2018-03-16T16:45:35.403Z,13.18
2018-03-16T16:46:35.923Z,13.19
2018-03-16T16:47:36.006Z,13.09
2018-03-16T16:48:35.889Z,13.13
2018-03-16T16:49:35.377Z,13.12
2018-03-16T16:50:35.884Z,13.04
2018-03-16T16:51:35.887Z,13.03
2018-03-16T16:52:35.883Z,13.01
2018-03-16T16:53:35.877Z,12.97
2018-03-16T16:54:35.879Z,12.94
2018-03-16T16:55:35.624Z,12.94
2018-03-16T16:56:35.668Z,12.85
2018-03-16T16:57:35.922Z,12.94
2018-03-16T16:58:35.622Z,12.8
2018-03-16T16:59:35.611Z,12.85
2018-03-16T17:00:35.610Z,12.8
2018-03-16T17:01:35.922Z,12.83
2018-03-16T17:02:40.558Z,12.68
2018-03-16T17:03:35.858Z,12.73
2018-03-16T17:04:35.865Z,12.7
2018-03-16T17:05:35.885Z,12.67
2018-03-16T17:06:35.855Z,12.67
2018-03-16T17:07:35.841Z,12.73
2018-03-16T17:08:35.588Z,12.72
2018-03-16T17:09:35.602Z,12.72
2018-03-16T17:10:35.846Z,12.67
2018-03-16T17:11:35.841Z,12.61
2018-03-16T17:12:35.840Z,12.61
2018-03-16T17:13:35.840Z,12.5
2018-03-16T17:14:35.569Z,12.5
2018-03-16T17:15:35.826Z,12.53
2018-03-16T17:16:35.824Z,12.53
2018-03-16T17:17:35.833Z,12.46
2018-03-16T17:18:35.589Z,12.4
2018-03-16T17:19:35.828Z,12.42
2018-03-16T17:20:35.813Z,12.42
2018-03-16T17:21:35.808Z,12.29
2018-03-16T17:22:35.826Z,12.32
2018-03-16T17:23:35.806Z,12.36
2018-03-16T17:24:35.839Z,12.35
2018-03-16T17:25:35.801Z,12.4
2018-03-16T17:26:35.794Z,12.36
2018-03-16T17:27:35.864Z,12.22
2018-03-16T17:28:35.530Z,12.22
2018-03-16T17:29:35.278Z,12.21
2018-03-16T17:30:35.843Z,12.13
2018-03-16T17:31:35.843Z,12.09
2018-03-16T17:32:35.583Z,12.06
2018-03-16T17:33:37.688Z,12.04
2018-03-16T17:34:35.782Z,11.95
2018-03-16T17:35:35.766Z,11.94
2018-03-16T17:36:35.782Z,11.86
2018-03-16T17:37:35.764Z,11.8
2018-03-16T17:38:35.756Z,11.75
2018-03-16T17:39:35.746Z,11.69
2018-03-16T17:40:35.490Z,11.68
2018-03-16T17:41:35.499Z,11.68
2018-03-16T17:42:35.517Z,11.68
2018-03-16T17:43:35.746Z,11.62
2018-03-16T17:44:35.741Z,11.57
2018-03-16T17:45:35.480Z,11.59
2018-03-16T17:46:35.477Z,11.57
2018-03-16T17:47:35.723Z,11.5
2018-03-16T17:48:36.527Z,11.44
2018-03-16T17:49:35.720Z,11.37
2018-03-16T17:50:35.728Z,11.45
2018-03-16T17:51:35.484Z,11.33
2018-03-16T17:52:35.713Z,11.37
2018-03-16T17:53:35.696Z,11.3
2018-03-16T17:54:35.704Z,11.3
2018-03-16T17:55:35.732Z,11.14
2018-03-16T17:56:35.275Z,11.17
2018-03-16T17:57:35.445Z,11.05
2018-03-16T17:58:35.678Z,11.1
2018-03-16T17:59:35.738Z,10.94
2018-03-16T18:00:35.778Z,10.92
2018-03-16T18:01:35.671Z,10.96
2018-03-16T18:02:35.480Z,10.9
2018-03-16T18:03:36.847Z,10.89
2018-03-16T18:04:35.741Z,10.78
2018-03-16T18:05:35.663Z,10.86
2018-03-16T18:06:35.402Z,10.84
2018-03-16T18:07:35.406Z,10.84
2018-03-16T18:08:35.641Z,10.75
2018-03-16T18:09:35.739Z,10.74
2018-03-16T18:10:35.653Z,10.69
2018-03-16T18:11:35.692Z,10.71
2018-03-16T18:12:35.380Z,10.61
2018-03-16T18:13:35.383Z,10.56
2018-03-16T18:14:35.394Z,10.57
2018-03-16T18:15:35.620Z,10.61
2018-03-16T18:16:35.654Z,10.48
2018-03-16T18:17:35.603Z,10.44
2018-03-16T18:18:35.406Z,10.38
2018-03-16T18:19:35.603Z,10.31
2018-03-16T18:20:35.478Z,10.28
2018-03-16T18:21:35.601Z,10.16
2018-03-16T18:22:35.773Z,10.12
2018-03-16T18:23:35.765Z,10.15
2018-03-16T18:24:35.352Z,10.1
2018-03-16T18:25:35.747Z,9.98
2018-03-16T18:26:35.134Z,9.89
2018-03-16T18:27:35.313Z,9.92
2018-03-16T18:28:35.407Z,9.91
2018-03-16T18:29:35.330Z,9.86
2018-03-16T18:30:35.572Z,9.79
2018-03-16T18:31:35.675Z,9.79
2018-03-16T18:32:35.596Z,9.77
2018-03-16T18:33:35.310Z,9.73
2018-03-16T18:34:35.318Z,9.73
2018-03-16T18:35:35.574Z,9.72
2018-03-16T18:36:35.530Z,9.66
2018-03-16T18:37:35.272Z,9.73
2018-03-16T18:38:35.274Z,9.66
2018-03-16T18:39:35.271Z,9.65
2018-03-16T18:40:35.518Z,9.62
2018-03-16T18:41:35.267Z,9.59
2018-03-16T18:42:35.514Z,9.64
2018-03-16T18:43:35.253Z,9.5
2018-03-16T18:44:35.240Z,9.54
2018-03-16T18:45:35.490Z,9.54
2018-03-16T18:46:35.328Z,9.58
2018-03-16T18:47:35.484Z,9.58
2018-03-16T18:48:35.476Z,9.54
2018-03-16T18:49:35.221Z,9.65
2018-03-16T18:50:35.229Z,9.62
2018-03-16T18:51:35.206Z,9.65
2018-03-16T18:52:35.208Z,9.61
2018-03-16T18:53:35.520Z,9.65
2018-03-16T18:54:34.947Z,9.58
2018-03-16T18:55:35.449Z,9.59
2018-03-16T18:56:35.198Z,9.55
2018-03-16T18:57:35.454Z,9.58
2018-03-16T18:58:35.447Z,9.54
2018-03-16T18:59:35.442Z,9.48
2018-03-16T19:00:35.459Z,9.51
2018-03-16T19:01:35.440Z,9.5
2018-03-16T19:02:35.167Z,9.5
2018-03-16T19:03:35.410Z,9.55
2018-03-16T19:04:35.649Z,9.43
2018-03-16T19:05:34.888Z,9.36
2018-03-16T19:06:35.138Z,9.41
2018-03-16T19:07:35.403Z,9.44
2018-03-16T19:08:35.390Z,9.47
2018-03-16T19:09:35.375Z,9.4
2018-03-16T19:10:35.124Z,9.39
2018-03-16T19:11:35.377Z,9.36
2018-03-16T19:12:35.360Z,9.31
2018-03-16T19:13:35.358Z,9.31
2018-03-16T19:14:35.357Z,9.32
2018-03-16T19:15:35.358Z,9.34
2018-03-16T19:16:35.094Z,9.4
2018-03-16T19:17:35.093Z,9.34
2018-03-16T19:18:35.080Z,9.37
2018-03-16T19:19:35.523Z,9.43
2018-03-16T19:20:35.349Z,9.46
2018-03-16T19:21:35.079Z,9.44
2018-03-16T19:22:35.076Z,9.44
2018-03-16T19:23:35.086Z,9.47
2018-03-16T19:24:35.045Z,9.5
2018-03-16T19:25:35.042Z,9.43
2018-03-16T19:26:35.293Z,9.46
2018-03-16T19:27:34.792Z,9.34
2018-03-16T19:28:35.043Z,9.44
2018-03-16T19:29:35.025Z,9.44
2018-03-16T19:30:35.020Z,9.37
2018-03-16T19:31:35.282Z,9.28
2018-03-16T19:32:35.010Z,9.34
2018-03-16T19:33:35.267Z,9.32
2018-03-16T19:34:38.957Z,9.37
2018-03-16T19:35:34.993Z,9.28
2018-03-16T19:36:34.987Z,9.34
2018-03-16T19:37:35.245Z,9.37
2018-03-16T19:38:35.233Z,9.31
2018-03-16T19:39:35.227Z,9.31
2018-03-16T19:40:35.229Z,9.32
2018-03-16T19:41:35.215Z,9.32
2018-03-16T19:42:35.221Z,9.29
2018-03-16T19:43:35.219Z,9.29
2018-03-16T19:44:34.947Z,9.28
2018-03-16T19:45:35.194Z,9.16
2018-03-16T19:46:35.192Z,9.22
2018-03-16T19:47:35.193Z,9.13
2018-03-16T19:48:35.058Z,9.1
2018-03-16T19:49:34.976Z,9.06
2018-03-16T19:50:35.175Z,9.11
2018-03-16T19:51:34.908Z,9.11
2018-03-16T19:52:35.165Z,8.99
2018-03-16T19:53:35.163Z,8.97
2018-03-16T19:54:34.972Z,8.95
2018-03-16T19:55:35.148Z,8.89
2018-03-16T19:56:35.146Z,8.89
2018-03-16T19:57:34.884Z,8.88
2018-03-16T19:58:35.129Z,8.85
2018-03-16T19:59:35.126Z,8.82
2018-03-16T20:00:34.916Z,8.84
2018-03-16T20:01:35.164Z,8.69
2018-03-16T20:02:34.864Z,8.74
2018-03-16T20:03:34.849Z,8.69
2018-03-16T20:04:36.903Z,8.82
2018-03-16T20:05:35.110Z,8.69
2018-03-16T20:06:34.919Z,8.78
2018-03-16T20:07:34.841Z,8.84
2018-03-16T20:08:35.086Z,8.89
2018-03-16T20:09:35.079Z,8.87
2018-03-16T20:10:34.826Z,8.88
2018-03-16T20:11:35.064Z,8.91
2018-03-16T20:12:35.070Z,8.87
2018-03-16T20:13:35.060Z,8.88
2018-03-16T20:14:34.792Z,8.88
2018-03-16T20:15:35.048Z,8.85
2018-03-16T20:16:34.779Z,8.91
2018-03-16T20:17:35.043Z,8.87
2018-03-16T20:18:34.769Z,8.92
2018-03-16T20:19:34.792Z,8.88
2018-03-16T20:20:34.760Z,8.79
2018-03-16T20:21:34.755Z,8.78
2018-03-16T20:22:34.495Z,8.92
2018-03-16T20:23:34.997Z,8.88
2018-03-16T20:24:34.989Z,8.78
2018-03-16T20:25:34.984Z,8.66
2018-03-16T20:26:34.481Z,8.79
2018-03-16T20:27:34.987Z,8.64
2018-03-16T20:28:34.730Z,8.64
2018-03-16T20:29:34.717Z,8.64
2018-03-16T20:30:34.961Z,8.58
2018-03-16T20:31:35.003Z,8.48
2018-03-16T20:32:34.714Z,8.53
2018-03-16T20:33:34.705Z,8.42
2018-03-16T20:34:34.688Z,8.41
2018-03-16T20:35:38.798Z,8.3
2018-03-16T20:36:34.423Z,8.23
2018-03-16T20:37:34.936Z,8.16
2018-03-16T20:38:34.935Z,8.19
2018-03-16T20:39:34.910Z,8.23
2018-03-16T20:40:34.660Z,8.05
2018-03-16T20:41:34.908Z,8.09
2018-03-16T20:42:34.650Z,8.16
2018-03-16T20:43:34.903Z,8.15
2018-03-16T20:44:34.915Z,8.13
2018-03-16T20:45:34.630Z,8.01
2018-03-16T20:46:34.629Z,8.06
2018-03-16T20:47:34.691Z,8.05
2018-03-16T20:48:34.891Z,8.03
2018-03-16T20:49:34.622Z,8.01
2018-03-16T20:50:34.360Z,7.91
2018-03-16T20:51:34.865Z,7.97
2018-03-16T20:52:34.841Z,8
2018-03-16T20:53:34.585Z,7.85
2018-03-16T20:54:34.832Z,7.93
2018-03-16T20:55:34.827Z,7.94
2018-03-16T20:56:34.565Z,7.77
2018-03-16T20:57:34.822Z,7.72
2018-03-16T20:58:34.821Z,7.72
2018-03-16T20:59:34.806Z,7.82
2018-03-16T21:00:34.804Z,7.76
2018-03-16T21:01:34.794Z,7.77
2018-03-16T21:02:34.781Z,7.79
2018-03-16T21:03:34.788Z,7.76
2018-03-16T21:04:34.267Z,7.73
2018-03-16T21:05:35.615Z,7.57
2018-03-16T21:06:34.757Z,7.51
2018-03-16T21:07:34.754Z,7.51
2018-03-16T21:08:34.758Z,7.48
2018-03-16T21:09:34.743Z,7.48
2018-03-16T21:10:34.749Z,7.47
2018-03-16T21:11:34.218Z,7.4
2018-03-16T21:12:34.720Z,7.39
2018-03-16T21:13:34.711Z,7.36
2018-03-16T21:14:34.702Z,7.45
2018-03-16T21:15:34.699Z,7.38
2018-03-16T21:16:34.703Z,7.39
2018-03-16T21:17:34.442Z,7.42
2018-03-16T21:18:34.684Z,7.39
2018-03-16T21:19:34.431Z,7.38
2018-03-16T21:20:34.686Z,7.36
2018-03-16T21:21:34.703Z,7.33
2018-03-16T21:22:34.654Z,7.32
2018-03-16T21:23:34.400Z,7.29
2018-03-16T21:24:34.390Z,7.21
2018-03-16T21:25:34.134Z,7.2
2018-03-16T21:26:34.392Z,7.17
2018-03-16T21:27:34.631Z,7.17
2018-03-16T21:28:34.621Z,7.13
2018-03-16T21:29:34.630Z,7.15
2018-03-16T21:30:34.614Z,7.05
2018-03-16T21:31:34.349Z,7.13
2018-03-16T21:32:34.349Z,7.1
2018-03-16T21:33:34.587Z,7.06
2018-03-16T21:34:34.586Z,7.03
2018-03-16T21:35:34.580Z,7.02
2018-03-16T21:36:36.203Z,6.88
2018-03-16T21:37:34.312Z,6.95
2018-03-16T21:38:34.568Z,7.03
2018-03-16T21:39:34.553Z,7.1
2018-03-16T21:40:34.553Z,7.11
2018-03-16T21:41:34.051Z,7.11
2018-03-16T21:42:34.535Z,7.14
2018-03-16T21:43:34.529Z,7.15
2018-03-16T21:44:34.523Z,7.13
2018-03-16T21:45:34.262Z,7.2
2018-03-16T21:46:34.506Z,7.14
2018-03-16T21:47:34.518Z,7.23
2018-03-16T21:48:34.235Z,7.14
2018-03-16T21:49:34.488Z,7.1
2018-03-16T21:50:34.503Z,7.07
2018-03-16T21:51:35.473Z,7.13
2018-03-16T21:52:34.474Z,6.95
2018-03-16T21:53:34.468Z,6.88
2018-03-16T21:54:34.467Z,6.87
2018-03-16T21:55:34.452Z,6.84
2018-03-16T21:56:34.195Z,6.84
2018-03-16T21:57:34.174Z,6.75
2018-03-16T21:58:34.424Z,6.74
2018-03-16T21:59:34.424Z,6.77
2018-03-16T22:00:34.415Z,6.81
2018-03-16T22:01:34.152Z,6.75
2018-03-16T22:02:34.415Z,6.63
2018-03-16T22:03:34.148Z,6.69
2018-03-16T22:04:34.382Z,6.63
2018-03-16T22:05:34.134Z,6.6
2018-03-16T22:06:34.648Z,6.57
2018-03-16T22:07:34.115Z,6.59
2018-03-16T22:08:34.107Z,6.54
2018-03-16T22:09:34.368Z,6.57
2018-03-16T22:10:34.092Z,6.59
2018-03-16T22:11:34.095Z,6.63
2018-03-16T22:12:34.338Z,6.49
2018-03-16T22:13:34.218Z,6.48
2018-03-16T22:14:34.066Z,6.52
2018-03-16T22:15:34.080Z,6.46
2018-03-16T22:16:34.306Z,6.64
2018-03-16T22:17:34.050Z,6.48
2018-03-16T22:18:34.295Z,6.57
2018-03-16T22:19:34.047Z,6.49
2018-03-16T22:20:34.278Z,6.46
2018-03-16T22:21:34.025Z,6.49
2018-03-16T22:22:34.258Z,6.42
2018-03-16T22:23:34.019Z,6.42
2018-03-16T22:24:34.265Z,6.35
2018-03-16T22:25:33.996Z,6.38
2018-03-16T22:26:33.987Z,6.38
2018-03-16T22:27:34.227Z,6.27
2018-03-16T22:28:34.271Z,6.27
2018-03-16T22:29:33.970Z,6.19
2018-03-16T22:30:34.221Z,6.22
2018-03-16T22:31:34.210Z,6.22
2018-03-16T22:32:34.003Z,6.09
2018-03-16T22:33:34.186Z,6.16
2018-03-16T22:34:34.183Z,6.07
2018-03-16T22:35:34.168Z,6.05
2018-03-16T22:36:33.962Z,6.05
2018-03-16T22:37:34.161Z,6.09
2018-03-16T22:38:33.926Z,6.07
2018-03-16T22:39:34.145Z,6.05
2018-03-16T22:40:34.141Z,6.11
2018-03-16T22:41:34.128Z,6.08
2018-03-16T22:42:33.870Z,6.07
2018-03-16T22:43:34.126Z,6.08
2018-03-16T22:44:34.125Z,6.16
2018-03-16T22:45:34.115Z,6.16
2018-03-16T22:46:34.107Z,6.19
2018-03-16T22:47:34.138Z,6.14
2018-03-16T22:48:34.084Z,6.26
2018-03-16T22:49:33.852Z,6.27
2018-03-16T22:50:33.859Z,6.27
2018-03-16T22:51:34.102Z,6.36
2018-03-16T22:52:34.078Z,6.45
2018-03-16T22:53:34.052Z,6.33
2018-03-16T22:54:34.060Z,6.45
2018-03-16T22:55:34.044Z,6.41
2018-03-16T22:56:34.074Z,6.35
2018-03-16T22:57:34.027Z,6.44
2018-03-16T22:58:34.013Z,6.46
2018-03-16T22:59:33.742Z,6.38
2018-03-16T23:00:34.010Z,6.45
2018-03-16T23:01:33.730Z,6.51
2018-03-16T23:02:33.975Z,6.41
2018-03-16T23:03:33.711Z,6.49
2018-03-16T23:04:33.956Z,6.51
2018-03-16T23:05:33.955Z,6.51
2018-03-16T23:06:33.964Z,6.52
2018-03-16T23:07:33.961Z,6.51
2018-03-16T23:08:33.936Z,6.6
2018-03-16T23:09:33.937Z,6.62
2018-03-16T23:10:33.942Z,6.56
2018-03-16T23:11:33.929Z,6.6
2018-03-16T23:12:33.918Z,6.72
2018-03-16T23:13:33.918Z,6.69
2018-03-16T23:14:33.621Z,6.66
2018-03-16T23:15:33.619Z,6.57
2018-03-16T23:16:33.610Z,6.62
2018-03-16T23:17:33.604Z,6.59
2018-03-16T23:18:33.602Z,6.59
2018-03-16T23:19:33.868Z,6.56
2018-03-16T23:20:33.580Z,6.6
2018-03-16T23:21:33.851Z,6.51
2018-03-16T23:22:34.143Z,6.44
2018-03-16T23:23:33.822Z,6.57
2018-03-16T23:24:33.882Z,6.56
2018-03-16T23:25:33.817Z,6.51
2018-03-16T23:26:33.542Z,6.39
2018-03-16T23:27:33.803Z,6.45
2018-03-16T23:28:33.788Z,6.45
2018-03-16T23:29:33.788Z,6.36
2018-03-16T23:30:33.766Z,6.35
2018-03-16T23:31:33.762Z,6.26
2018-03-16T23:32:33.501Z,6.27
2018-03-16T23:33:33.490Z,6.22
2018-03-16T23:34:33.742Z,6.09
2018-03-16T23:35:33.468Z,6.07
2018-03-16T23:36:33.495Z,6.04
2018-03-16T23:37:33.709Z,5.97
2018-03-16T23:38:33.714Z,5.91
2018-03-16T23:39:33.707Z,5.87
2018-03-16T23:40:33.689Z,5.83
2018-03-16T23:41:33.683Z,5.84
2018-03-16T23:42:33.677Z,5.73
2018-03-16T23:43:33.413Z,5.79
2018-03-16T23:44:33.669Z,5.66
2018-03-16T23:45:33.651Z,5.71
2018-03-16T23:46:33.645Z,5.57
2018-03-16T23:47:33.635Z,5.59
2018-03-16T23:48:33.630Z,5.64
2018-03-16T23:49:33.655Z,5.61
2018-03-16T23:50:33.613Z,5.65
2018-03-16T23:51:33.607Z,5.66
2018-03-16T23:52:33.805Z,5.66
2018-03-16T23:53:33.344Z,5.69
2018-03-16T23:54:33.582Z,5.73
2018-03-16T23:55:33.575Z,5.62
2018-03-16T23:56:33.567Z,5.68
2018-03-16T23:57:33.565Z,5.68
2018-03-16T23:58:33.552Z,5.64
2018-03-16T23:59:33.544Z,5.59
